Bascom, Texas
Current Conditions -  °F | °C
As of 2:53 PM on Tuesday 27 Jan 2015 (Local Time) from KTYR Reporting Station
Clear Clear  
Wind Chill: 77°   Ceiling: Unl
Heat Index: 77°   Visibility: 10mi
Dew Point: 37°   Wind: 5mph
Humidity: 24%   Direction: NA
Pressure: 30.1"   Gusts: NA
Location:  32.3665°N, 95.1299°W
Report Text: KTYR 272053Z VRB04KT 10SM CLR 25/03 A3010 RMK AO2 SLP189 T02500028 56022
Loading
Personal Weather Stations






























Interactive Weather Map New forecast layout! Learn more

10-Day Weather Forecast

Advertisements
Track Severe Weather on mobile